sensor_id;sensor_type;location;lat;lon;timestamp;pressure;altitude;pressure_sealevel;temperature;humidity
76990;BME280;65924;47.250;11.332;2022-12-11T00:00:00;93795.67;;;2.67;72.41
76990;BME280;65924;47.250;11.332;2022-12-11T00:00:32;93798.54;;;2.67;72.26
76990;BME280;65924;47.250;11.332;2022-12-11T00:01:07;93796.56;;;2.67;72.57
76990;BME280;65924;47.250;11.332;2022-12-11T00:01:35;93797.23;;;2.66;72.69
76990;BME280;65924;47.250;11.332;2022-12-11T00:02:03;93795.59;;;2.66;72.58
76990;BME280;65924;47.250;11.332;2022-12-11T00:02:31;93795.78;;;2.65;72.59
76990;BME280;65924;47.250;11.332;2022-12-11T00:02:58;93798.13;;;2.65;72.55
76990;BME280;65924;47.250;11.332;2022-12-11T00:03:26;93793.95;;;2.65;72.53
76990;BME280;65924;47.250;11.332;2022-12-11T00:03:53;93800.30;;;2.65;72.45
76990;BME280;65924;47.250;11.332;2022-12-11T00:04:21;93795.91;;;2.66;72.31
76990;BME280;65924;47.250;11.332;2022-12-11T00:04:49;93795.21;;;2.66;72.56
76990;BME280;65924;47.250;11.332;2022-12-11T00:05:16;93795.39;;;2.67;72.36
76990;BME280;65924;47.250;11.332;2022-12-11T00:05:45;93796.05;;;2.67;72.18
76990;BME280;65924;47.250;11.332;2022-12-11T00:06:16;93794.53;;;2.67;72.37
76990;BME280;65924;47.250;11.332;2022-12-11T00:06:44;93793.17;;;2.67;72.59
76990;BME280;65924;47.250;11.332;2022-12-11T00:07:12;93795.69;;;2.67;72.29
76990;BME280;65924;47.250;11.332;2022-12-11T00:07:39;93796.02;;;2.67;72.06
76990;BME280;65924;47.250;11.332;2022-12-11T00:08:07;93796.51;;;2.67;72.15
76990;BME280;65924;47.250;11.332;2022-12-11T00:08:35;93797.37;;;2.67;72.14
76990;BME280;65924;47.250;11.332;2022-12-11T00:09:03;93795.86;;;2.67;72.28
76990;BME280;65924;47.250;11.332;2022-12-11T00:09:30;93798.17;;;2.67;72.21
76990;BME280;65924;47.250;11.332;2022-12-11T00:09:58;93800.70;;;2.67;72.14
76990;BME280;65924;47.250;11.332;2022-12-11T00:10:26;93798.69;;;2.67;72.11
76990;BME280;65924;47.250;11.332;2022-12-11T00:10:53;93800.35;;;2.68;72.04
76990;BME280;65924;47.250;11.332;2022-12-11T00:11:21;93800.88;;;2.67;72.05
76990;BME280;65924;47.250;11.332;2022-12-11T00:11:49;93798.36;;;2.67;72.01
76990;BME280;65924;47.250;11.332;2022-12-11T00:12:17;93800.38;;;2.67;72.28
76990;BME280;65924;47.250;11.332;2022-12-11T00:12:44;93802.25;;;2.66;72.29
76990;BME280;65924;47.250;11.332;2022-12-11T00:13:12;93800.25;;;2.66;72.25
76990;BME280;65924;47.250;11.332;2022-12-11T00:13:40;93801.96;;;2.66;72.29
76990;BME280;65924;47.250;11.332;2022-12-11T00:14:08;93801.68;;;2.65;72.31
76990;BME280;65924;47.250;11.332;2022-12-11T00:14:35;93799.69;;;2.64;72.32
76990;BME280;65924;47.250;11.332;2022-12-11T00:15:04;93802.23;;;2.64;72.10
76990;BME280;65924;47.250;11.332;2022-12-11T00:15:32;93803.92;;;2.64;72.03
76990;BME280;65924;47.250;11.332;2022-12-11T00:15:59;93806.30;;;2.63;72.02
76990;BME280;65924;47.250;11.332;2022-12-11T00:16:27;93804.29;;;2.63;72.02
76990;BME280;65924;47.250;11.332;2022-12-11T00:16:54;93803.14;;;2.62;72.14
76990;BME280;65924;47.250;11.332;2022-12-11T00:17:22;93808.34;;;2.62;72.26
76990;BME280;65924;47.250;11.332;2022-12-11T00:17:49;93807.18;;;2.62;72.44
76990;BME280;65924;47.250;11.332;2022-12-11T00:18:17;93805.19;;;2.61;72.47
76990;BME280;65924;47.250;11.332;2022-12-11T00:18:45;93806.75;;;2.61;72.51
76990;BME280;65924;47.250;11.332;2022-12-11T00:19:12;93804.27;;;2.60;72.43
76990;BME280;65924;47.250;11.332;2022-12-11T00:19:40;93798.59;;;2.56;72.25
76990;BME280;65924;47.250;11.332;2022-12-11T00:20:08;93809.98;;;2.60;72.07
76990;BME280;65924;47.250;11.332;2022-12-11T00:20:36;93804.17;;;2.58;72.20
76990;BME280;65924;47.250;11.332;2022-12-11T00:21:07;93806.61;;;2.60;72.15
76990;BME280;65924;47.250;11.332;2022-12-11T00:21:37;93805.59;;;2.61;72.23
76990;BME280;65924;47.250;11.332;2022-12-11T00:22:04;93802.61;;;2.60;72.33
76990;BME280;65924;47.250;11.332;2022-12-11T00:22:32;93804.27;;;2.60;72.17
76990;BME280;65924;47.250;11.332;2022-12-11T00:22:59;93806.61;;;2.60;72.19
76990;BME280;65924;47.250;11.332;2022-12-11T00:23:27;93804.98;;;2.59;72.05
76990;BME280;65924;47.250;11.332;2022-12-11T00:23:55;93802.95;;;2.59;72.16
76990;BME280;65924;47.250;11.332;2022-12-11T00:24:23;93804.14;;;2.59;72.10
76990;BME280;65924;47.250;11.332;2022-12-11T00:24:50;93803.98;;;2.59;71.95
76990;BME280;65924;47.250;11.332;2022-12-11T00:25:18;93802.95;;;2.59;72.06
76990;BME280;65924;47.250;11.332;2022-12-11T00:25:46;93804.77;;;2.60;72.14
76990;BME280;65924;47.250;11.332;2022-12-11T00:26:15;93804.31;;;2.59;72.03
76990;BME280;65924;47.250;11.332;2022-12-11T00:26:42;93805.48;;;2.59;72.14
76990;BME280;65924;47.250;11.332;2022-12-11T00:27:10;93805.84;;;2.59;72.25
76990;BME280;65924;47.250;11.332;2022-12-11T00:27:38;93803.00;;;2.58;72.34
76990;BME280;65924;47.250;11.332;2022-12-11T00:28:05;93804.31;;;2.59;72.29
76990;BME280;65924;47.250;11.332;2022-12-11T00:28:33;93804.15;;;2.59;72.29
76990;BME280;65924;47.250;11.332;2022-12-11T00:29:00;93808.34;;;2.59;72.34
76990;BME280;65924;47.250;11.332;2022-12-11T00:29:28;93804.48;;;2.59;72.44
76990;BME280;65924;47.250;11.332;2022-12-11T00:29:55;93809.17;;;2.59;72.45
76990;BME280;65924;47.250;11.332;2022-12-11T00:30:23;93806.99;;;2.59;72.55
76990;BME280;65924;47.250;11.332;2022-12-11T00:30:50;93803.81;;;2.59;72.28
76990;BME280;65924;47.250;11.332;2022-12-11T00:31:18;93806.50;;;2.59;72.22
76990;BME280;65924;47.250;11.332;2022-12-11T00:31:46;93802.98;;;2.59;72.29
76990;BME280;65924;47.250;11.332;2022-12-11T00:32:14;93805.64;;;2.59;72.16
76990;BME280;65924;47.250;11.332;2022-12-11T00:32:41;93807.14;;;2.60;72.06
76990;BME280;65924;47.250;11.332;2022-12-11T00:33:12;93808.28;;;2.60;71.84
76990;BME280;65924;47.250;11.332;2022-12-11T00:33:41;93806.27;;;2.60;72.08
76990;BME280;65924;47.250;11.332;2022-12-11T00:34:09;93810.25;;;2.61;71.81
76990;BME280;65924;47.250;11.332;2022-12-11T00:34:38;93805.89;;;2.61;71.80
76990;BME280;65924;47.250;11.332;2022-12-11T00:35:05;93807.39;;;2.61;71.65
76990;BME280;65924;47.250;11.332;2022-12-11T00:35:37;93805.38;;;2.61;71.72
76990;BME280;65924;47.250;11.332;2022-12-11T00:36:10;93804.89;;;2.61;71.55
76990;BME280;65924;47.250;11.332;2022-12-11T00:36:37;93803.79;;;2.60;71.33
76990;BME280;65924;47.250;11.332;2022-12-11T00:37:05;93807.02;;;2.59;71.24
76990;BME280;65924;47.250;11.332;2022-12-11T00:37:32;93805.69;;;2.58;71.12
76990;BME280;65924;47.250;11.332;2022-12-11T00:38:00;93808.38;;;2.58;71.33
76990;BME280;65924;47.250;11.332;2022-12-11T00:38:27;93810.73;;;2.58;71.23
76990;BME280;65924;47.250;11.332;2022-12-11T00:38:55;93811.56;;;2.58;71.17
76990;BME280;65924;47.250;11.332;2022-12-11T00:39:23;93811.06;;;2.58;71.27
76990;BME280;65924;47.250;11.332;2022-12-11T00:39:50;93808.91;;;2.57;71.21
76990;BME280;65924;47.250;11.332;2022-12-11T00:40:18;93808.46;;;2.56;71.09
76990;BME280;65924;47.250;11.332;2022-12-11T00:40:47;93805.27;;;2.57;70.97
76990;BME280;65924;47.250;11.332;2022-12-11T00:41:16;93807.43;;;2.57;70.89
76990;BME280;65924;47.250;11.332;2022-12-11T00:41:43;93808.80;;;2.57;71.27
76990;BME280;65924;47.250;11.332;2022-12-11T00:42:11;93807.46;;;2.56;71.20
76990;BME280;65924;47.250;11.332;2022-12-11T00:42:39;93809.28;;;2.56;71.16
76990;BME280;65924;47.250;11.332;2022-12-11T00:43:06;93809.30;;;2.56;71.13
76990;BME280;65924;47.250;11.332;2022-12-11T00:43:34;93808.30;;;2.56;71.10
76990;BME280;65924;47.250;11.332;2022-12-11T00:44:02;93807.31;;;2.56;70.90
76990;BME280;65924;47.250;11.332;2022-12-11T00:44:30;93811.34;;;2.56;71.18
76990;BME280;65924;47.250;11.332;2022-12-11T00:44:58;93810.87;;;2.55;71.05
76990;BME280;65924;47.250;11.332;2022-12-11T00:45:25;93806.91;;;2.54;71.10
76990;BME280;65924;47.250;11.332;2022-12-11T00:45:53;93806.61;;;2.53;71.04
76990;BME280;65924;47.250;11.332;2022-12-11T00:46:20;93807.48;;;2.52;70.88
76990;BME280;65924;47.250;11.332;2022-12-11T00:46:48;93807.20;;;2.51;70.93
76990;BME280;65924;47.250;11.332;2022-12-11T00:47:15;93806.40;;;2.51;70.83
76990;BME280;65924;47.250;11.332;2022-12-11T00:47:43;93808.13;;;2.50;70.95
76990;BME280;65924;47.250;11.332;2022-12-11T00:48:12;93806.31;;;2.49;71.10
76990;BME280;65924;47.250;11.332;2022-12-11T00:48:39;93805.31;;;2.49;71.21
76990;BME280;65924;47.250;11.332;2022-12-11T00:49:07;93806.52;;;2.48;71.26
76990;BME280;65924;47.250;11.332;2022-12-11T00:49:34;93808.05;;;2.48;71.08
76990;BME280;65924;47.250;11.332;2022-12-11T00:50:02;93808.70;;;2.48;71.23
76990;BME280;65924;47.250;11.332;2022-12-11T00:50:30;93806.59;;;2.46;71.00
76990;BME280;65924;47.250;11.332;2022-12-11T00:50:58;93809.07;;;2.47;71.23
76990;BME280;65924;47.250;11.332;2022-12-11T00:51:26;93807.56;;;2.47;71.14
76990;BME280;65924;47.250;11.332;2022-12-11T00:51:54;93812.09;;;2.47;71.00
76990;BME280;65924;47.250;11.332;2022-12-11T00:52:22;93811.70;;;2.49;71.15
76990;BME280;65924;47.250;11.332;2022-12-11T00:52:51;93814.39;;;2.48;71.43
76990;BME280;65924;47.250;11.332;2022-12-11T00:53:18;93814.41;;;2.48;71.49
76990;BME280;65924;47.250;11.332;2022-12-11T00:53:46;93814.10;;;2.48;71.50
76990;BME280;65924;47.250;11.332;2022-12-11T00:54:13;93814.41;;;2.48;71.42
76990;BME280;65924;47.250;11.332;2022-12-11T00:54:41;93814.44;;;2.47;71.50
76990;BME280;65924;47.250;11.332;2022-12-11T00:55:08;93816.45;;;2.48;71.23
76990;BME280;65924;47.250;11.332;2022-12-11T00:55:38;93816.12;;;2.47;71.03
76990;BME280;65924;47.250;11.332;2022-12-11T00:56:14;93815.10;;;2.48;71.02
76990;BME280;65924;47.250;11.332;2022-12-11T00:56:42;93817.27;;;2.48;71.00
76990;BME280;65924;47.250;11.332;2022-12-11T00:57:09;93818.08;;;2.48;71.23
76990;BME280;65924;47.250;11.332;2022-12-11T00:57:37;93817.60;;;2.48;71.19
76990;BME280;65924;47.250;11.332;2022-12-11T00:58:05;93819.61;;;2.48;71.00
76990;BME280;65924;47.250;11.332;2022-12-11T00:58:33;93816.09;;;2.48;71.06
76990;BME280;65924;47.250;11.332;2022-12-11T00:59:00;93821.27;;;2.49;71.16
76990;BME280;65924;47.250;11.332;2022-12-11T00:59:28;93820.41;;;2.49;71.33
76990;BME280;65924;47.250;11.332;2022-12-11T00:59:56;93821.77;;;2.49;71.27
76990;BME280;65924;47.250;11.332;2022-12-11T01:00:23;93821.45;;;2.48;71.33
76990;BME280;65924;47.250;11.332;2022-12-11T01:00:51;93821.50;;;2.47;71.29
76990;BME280;65924;47.250;11.332;2022-12-11T01:01:21;93825.89;;;2.46;71.25
76990;BME280;65924;47.250;11.332;2022-12-11T01:01:49;93821.75;;;2.46;71.43
76990;BME280;65924;47.250;11.332;2022-12-11T01:02:17;93823.63;;;2.45;71.42
76990;BME280;65924;47.250;11.332;2022-12-11T01:02:45;93824.17;;;2.44;71.54
76990;BME280;65924;47.250;11.332;2022-12-11T01:03:13;93827.05;;;2.43;71.53
76990;BME280;65924;47.250;11.332;2022-12-11T01:03:41;93829.45;;;2.42;71.29
76990;BME280;65924;47.250;11.332;2022-12-11T01:04:09;93826.44;;;2.42;71.20
76990;BME280;65924;47.250;11.332;2022-12-11T01:04:37;93828.44;;;2.42;71.19
76990;BME280;65924;47.250;11.332;2022-12-11T01:05:05;93830.27;;;2.43;71.17
76990;BME280;65924;47.250;11.332;2022-12-11T01:05:33;93831.58;;;2.43;71.29
76990;BME280;65924;47.250;11.332;2022-12-11T01:06:02;93831.24;;;2.43;71.41
76990;BME280;65924;47.250;11.332;2022-12-11T01:06:30;93831.53;;;2.44;71.48
76990;BME280;65924;47.250;11.332;2022-12-11T01:06:58;93830.34;;;2.45;71.45
76990;BME280;65924;47.250;11.332;2022-12-11T01:07:25;93830.00;;;2.45;71.30
76990;BME280;65924;47.250;11.332;2022-12-11T01:07:53;93833.31;;;2.45;71.55
76990;BME280;65924;47.250;11.332;2022-12-11T01:08:20;93831.64;;;2.45;71.39
76990;BME280;65924;47.250;11.332;2022-12-11T01:08:48;93832.48;;;2.46;71.28
76990;BME280;65924;47.250;11.332;2022-12-11T01:09:35;93832.34;;;2.45;71.31
76990;BME280;65924;47.250;11.332;2022-12-11T01:10:22;93832.02;;;2.45;71.38
76990;BME280;65924;47.250;11.332;2022-12-11T01:11:00;93830.70;;;2.44;71.61
76990;BME280;65924;47.250;11.332;2022-12-11T01:11:28;93830.22;;;2.43;71.47
76990;BME280;65924;47.250;11.332;2022-12-11T01:11:58;93830.95;;;2.42;71.40
76990;BME280;65924;47.250;11.332;2022-12-11T01:12:26;93834.30;;;2.42;71.53
76990;BME280;65924;47.250;11.332;2022-12-11T01:12:57;93832.97;;;2.42;71.63
76990;BME280;65924;47.250;11.332;2022-12-11T01:13:25;93829.30;;;2.42;71.56
76990;BME280;65924;47.250;11.332;2022-12-11T01:13:52;93834.16;;;2.42;71.45
76990;BME280;65924;47.250;11.332;2022-12-11T01:14:20;93831.67;;;2.41;71.51
76990;BME280;65924;47.250;11.332;2022-12-11T01:14:47;93831.81;;;2.42;71.61
76990;BME280;65924;47.250;11.332;2022-12-11T01:15:15;93833.84;;;2.42;71.50
76990;BME280;65924;47.250;11.332;2022-12-11T01:15:44;93835.70;;;2.41;71.44
76990;BME280;65924;47.250;11.332;2022-12-11T01:16:13;93830.54;;;2.40;71.47
76990;BME280;65924;47.250;11.332;2022-12-11T01:16:41;93833.19;;;2.41;71.45
76990;BME280;65924;47.250;11.332;2022-12-11T01:17:09;93834.86;;;2.41;71.82
76990;BME280;65924;47.250;11.332;2022-12-11T01:17:37;93835.09;;;2.40;71.95
76990;BME280;65924;47.250;11.332;2022-12-11T01:18:04;93834.69;;;2.37;71.85
76990;BME280;65924;47.250;11.332;2022-12-11T01:18:32;93835.86;;;2.37;71.93
76990;BME280;65924;47.250;11.332;2022-12-11T01:18:59;93835.23;;;2.36;71.86
76990;BME280;65924;47.250;11.332;2022-12-11T01:19:27;93837.09;;;2.36;71.63
76990;BME280;65924;47.250;11.332;2022-12-11T01:19:54;93839.11;;;2.36;71.78
76990;BME280;65924;47.250;11.332;2022-12-11T01:20:26;93837.30;;;2.35;71.93
76990;BME280;65924;47.250;11.332;2022-12-11T01:20:54;93840.06;;;2.34;71.70
76990;BME280;65924;47.250;11.332;2022-12-11T01:21:21;93841.52;;;2.35;71.72
76990;BME280;65924;47.250;11.332;2022-12-11T01:21:49;93841.31;;;2.35;71.63
76990;BME280;65924;47.250;11.332;2022-12-11T01:22:16;93840.13;;;2.36;71.68
76990;BME280;65924;47.250;11.332;2022-12-11T01:22:44;93842.13;;;2.36;71.72
76990;BME280;65924;47.250;11.332;2022-12-11T01:23:12;93842.48;;;2.36;71.89
76990;BME280;65924;47.250;11.332;2022-12-11T01:23:40;93843.48;;;2.36;71.75
76990;BME280;65924;47.250;11.332;2022-12-11T01:24:07;93843.29;;;2.37;71.80
76990;BME280;65924;47.250;11.332;2022-12-11T01:24:35;93838.76;;;2.36;71.72
76990;BME280;65924;47.250;11.332;2022-12-11T01:25:02;93837.75;;;2.36;71.75
76990;BME280;65924;47.250;11.332;2022-12-11T01:25:31;93838.23;;;2.37;71.76
76990;BME280;65924;47.250;11.332;2022-12-11T01:26:10;93837.27;;;2.36;71.63
76990;BME280;65924;47.250;11.332;2022-12-11T01:26:39;93842.42;;;2.37;71.69
76990;BME280;65924;47.250;11.332;2022-12-11T01:27:06;93838.91;;;2.37;71.66
76990;BME280;65924;47.250;11.332;2022-12-11T01:27:35;93836.45;;;2.36;71.77
76990;BME280;65924;47.250;11.332;2022-12-11T01:28:04;93838.92;;;2.36;71.69
76990;BME280;65924;47.250;11.332;2022-12-11T01:28:32;93834.96;;;2.35;71.66
76990;BME280;65924;47.250;11.332;2022-12-11T01:28:59;93840.48;;;2.36;71.49
76990;BME280;65924;47.250;11.332;2022-12-11T01:29:27;93839.45;;;2.36;71.42
76990;BME280;65924;47.250;11.332;2022-12-11T01:29:55;93838.27;;;2.36;71.54
76990;BME280;65924;47.250;11.332;2022-12-11T01:30:24;93831.63;;;2.35;71.85
76990;BME280;65924;47.250;11.332;2022-12-11T01:30:52;93835.96;;;2.35;71.80
76990;BME280;65924;47.250;11.332;2022-12-11T01:31:19;93837.17;;;2.35;71.91
76990;BME280;65924;47.250;11.332;2022-12-11T01:31:47;93835.94;;;2.32;71.79
76990;BME280;65924;47.250;11.332;2022-12-11T01:32:14;93835.92;;;2.33;71.92
76990;BME280;65924;47.250;11.332;2022-12-11T01:32:42;93835.99;;;2.31;71.76
76990;BME280;65924;47.250;11.332;2022-12-11T01:33:10;93833.59;;;2.29;71.87
76990;BME280;65924;47.250;11.332;2022-12-11T01:33:37;93837.21;;;2.30;71.79
76990;BME280;65924;47.250;11.332;2022-12-11T01:34:05;93838.23;;;2.30;71.90
76990;BME280;65924;47.250;11.332;2022-12-11T01:34:33;93832.38;;;2.29;71.75
76990;BME280;65924;47.250;11.332;2022-12-11T01:35:06;93836.52;;;2.31;71.79
76990;BME280;65924;47.250;11.332;2022-12-11T01:35:33;93833.54;;;2.30;71.81
76990;BME280;65924;47.250;11.332;2022-12-11T01:36:16;93833.69;;;2.30;71.72
76990;BME280;65924;47.250;11.332;2022-12-11T01:36:44;93834.71;;;2.30;71.50
76990;BME280;65924;47.250;11.332;2022-12-11T01:37:12;93834.87;;;2.30;71.48
76990;BME280;65924;47.250;11.332;2022-12-11T01:37:39;93836.20;;;2.30;71.52
76990;BME280;65924;47.250;11.332;2022-12-11T01:38:08;93836.67;;;2.31;71.41
76990;BME280;65924;47.250;11.332;2022-12-11T01:38:36;93835.52;;;2.31;71.20
76990;BME280;65924;47.250;11.332;2022-12-11T01:39:04;93838.14;;;2.32;71.30
76990;BME280;65924;47.250;11.332;2022-12-11T01:39:31;93834.27;;;2.32;71.07
76990;BME280;65924;47.250;11.332;2022-12-11T01:39:59;93834.75;;;2.33;71.00
76990;BME280;65924;47.250;11.332;2022-12-11T01:40:27;93834.53;;;2.34;71.29
76990;BME280;65924;47.250;11.332;2022-12-11T01:40:56;93833.05;;;2.33;71.19
76990;BME280;65924;47.250;11.332;2022-12-11T01:41:23;93833.07;;;2.32;71.20
76990;BME280;65924;47.250;11.332;2022-12-11T01:41:59;93833.94;;;2.32;71.16
76990;BME280;65924;47.250;11.332;2022-12-11T01:42:27;93831.73;;;2.33;71.36
76990;BME280;65924;47.250;11.332;2022-12-11T01:42:55;93830.79;;;2.31;71.39
76990;BME280;65924;47.250;11.332;2022-12-11T01:43:23;93832.97;;;2.31;71.30
76990;BME280;65924;47.250;11.332;2022-12-11T01:43:58;93832.80;;;2.31;71.47
76990;BME280;65924;47.250;11.332;2022-12-11T01:45:48;93833.50;;;2.31;71.16
76990;BME280;65924;47.250;11.332;2022-12-11T01:46:16;93832.38;;;2.30;71.04
76990;BME280;65924;47.250;11.332;2022-12-11T01:46:44;93832.55;;;2.30;71.08
76990;BME280;65924;47.250;11.332;2022-12-11T01:47:12;93830.73;;;2.29;71.11
76990;BME280;65924;47.250;11.332;2022-12-11T01:47:40;93829.61;;;2.28;71.16
76990;BME280;65924;47.250;11.332;2022-12-11T01:48:15;93832.93;;;2.28;71.22
76990;BME280;65924;47.250;11.332;2022-12-11T01:48:44;93833.30;;;2.28;71.11
76990;BME280;65924;47.250;11.332;2022-12-11T01:49:14;93834.02;;;2.27;71.28
76990;BME280;65924;47.250;11.332;2022-12-11T01:49:43;93834.84;;;2.27;71.22
76990;BME280;65924;47.250;11.332;2022-12-11T01:50:11;93835.08;;;2.26;71.26
76990;BME280;65924;47.250;11.332;2022-12-11T01:50:48;93831.20;;;2.26;71.28
76990;BME280;65924;47.250;11.332;2022-12-11T01:51:17;93832.90;;;2.26;71.42
76990;BME280;65924;47.250;11.332;2022-12-11T01:51:51;93833.39;;;2.26;71.30
76990;BME280;65924;47.250;11.332;2022-12-11T01:52:20;93835.23;;;2.26;71.49
76990;BME280;65924;47.250;11.332;2022-12-11T01:52:49;93834.91;;;2.26;71.56
76990;BME280;65924;47.250;11.332;2022-12-11T01:53:27;93833.05;;;2.26;71.46
76990;BME280;65924;47.250;11.332;2022-12-11T01:54:01;93833.40;;;2.26;71.52
76990;BME280;65924;47.250;11.332;2022-12-11T01:54:30;93833.08;;;2.26;71.54
76990;BME280;65924;47.250;11.332;2022-12-11T01:54:58;93833.76;;;2.25;71.55
76990;BME280;65924;47.250;11.332;2022-12-11T01:55:26;93837.61;;;2.25;71.39
76990;BME280;65924;47.250;11.332;2022-12-11T01:55:54;93832.90;;;2.26;71.38
76990;BME280;65924;47.250;11.332;2022-12-11T01:56:23;93834.59;;;2.26;71.46
76990;BME280;65924;47.250;11.332;2022-12-11T01:56:53;93835.23;;;2.26;71.59
76990;BME280;65924;47.250;11.332;2022-12-11T01:57:21;93830.91;;;2.25;71.46
76990;BME280;65924;47.250;11.332;2022-12-11T01:57:50;93831.35;;;2.27;71.52
76990;BME280;65924;47.250;11.332;2022-12-11T01:58:20;93832.83;;;2.27;71.52
76990;BME280;65924;47.250;11.332;2022-12-11T01:58:53;93832.67;;;2.27;71.70
76990;BME280;65924;47.250;11.332;2022-12-11T01:59:25;93831.98;;;2.28;71.38
76990;BME280;65924;47.250;11.332;2022-12-11T01:59:54;93831.01;;;2.27;70.84
76990;BME280;65924;47.250;11.332;2022-12-11T02:00:22;93830.52;;;2.27;70.84
76990;BME280;65924;47.250;11.332;2022-12-11T02:00:50;93833.04;;;2.26;71.00
76990;BME280;65924;47.250;11.332;2022-12-11T02:01:44;93830.54;;;2.26;71.01
76990;BME280;65924;47.250;11.332;2022-12-11T02:02:20;93832.95;;;2.25;71.05
76990;BME280;65924;47.250;11.332;2022-12-11T02:02:49;93830.34;;;2.23;71.17
76990;BME280;65924;47.250;11.332;2022-12-11T02:03:17;93830.38;;;2.22;71.06
76990;BME280;65924;47.250;11.332;2022-12-11T02:03:44;93834.09;;;2.22;71.06
76990;BME280;65924;47.250;11.332;2022-12-11T02:04:13;93832.61;;;2.21;70.72
76990;BME280;65924;47.250;11.332;2022-12-11T02:04:43;93832.28;;;2.21;70.86
76990;BME280;65924;47.250;11.332;2022-12-11T02:05:12;93830.95;;;2.21;71.02
76990;BME280;65924;47.250;11.332;2022-12-11T02:05:40;93833.00;;;2.20;70.96
76990;BME280;65924;47.250;11.332;2022-12-11T02:06:38;93835.67;;;2.20;70.82
76990;BME280;65924;47.250;11.332;2022-12-11T02:07:06;93834.91;;;2.19;70.75
76990;BME280;65924;47.250;11.332;2022-12-11T02:07:47;93834.11;;;2.17;71.05
76990;BME280;65924;47.250;11.332;2022-12-11T02:08:16;93839.03;;;2.16;70.63
76990;BME280;65924;47.250;11.332;2022-12-11T02:08:44;93836.11;;;2.15;70.48
76990;BME280;65924;47.250;11.332;2022-12-11T02:09:18;93840.68;;;2.14;70.63
76990;BME280;65924;47.250;11.332;2022-12-11T02:09:47;93837.52;;;2.13;70.91
76990;BME280;65924;47.250;11.332;2022-12-11T02:10:15;93836.89;;;2.12;70.67
76990;BME280;65924;47.250;11.332;2022-12-11T02:12:58;93836.61;;;2.11;70.87
76990;BME280;65924;47.250;11.332;2022-12-11T02:13:56;93837.23;;;2.08;70.71
76990;BME280;65924;47.250;11.332;2022-12-11T02:15:47;93838.56;;;2.05;70.98
76990;BME280;65924;47.250;11.332;2022-12-11T02:16:22;93838.42;;;2.05;71.15
76990;BME280;65924;47.250;11.332;2022-12-11T02:17:32;93840.83;;;2.03;70.92
76990;BME280;65924;47.250;11.332;2022-12-11T02:18:21;93838.73;;;2.01;71.22
76990;BME280;65924;47.250;11.332;2022-12-11T02:19:02;93839.36;;;1.98;71.21
76990;BME280;65924;47.250;11.332;2022-12-11T02:20:57;93838.42;;;1.97;71.29
76990;BME280;65924;47.250;11.332;2022-12-11T02:21:36;93836.10;;;1.96;71.21
76990;BME280;65924;47.250;11.332;2022-12-11T02:22:09;93838.29;;;1.96;71.22
76990;BME280;65924;47.250;11.332;2022-12-11T02:25:26;93844.02;;;1.92;71.02
76990;BME280;65924;47.250;11.332;2022-12-11T02:27:49;93848.92;;;1.87;70.97
76990;BME280;65924;47.250;11.332;2022-12-11T02:28:30;93845.95;;;1.86;71.20
76990;BME280;65924;47.250;11.332;2022-12-11T02:29:02;93847.15;;;1.86;71.14
76990;BME280;65924;47.250;11.332;2022-12-11T02:30:06;93844.84;;;1.85;71.41
76990;BME280;65924;47.250;11.332;2022-12-11T02:30:26;93846.90;;;1.83;71.15
76990;BME280;65924;47.250;11.332;2022-12-11T02:31:02;93845.40;;;1.83;71.28
76990;BME280;65924;47.250;11.332;2022-12-11T02:31:40;93840.88;;;1.83;71.40
76990;BME280;65924;47.250;11.332;2022-12-11T02:32:16;93843.70;;;1.84;71.43
76990;BME280;65924;47.250;11.332;2022-12-11T02:32:52;93844.99;;;1.85;71.58
76990;BME280;65924;47.250;11.332;2022-12-11T02:33:25;93845.32;;;1.85;71.72
76990;BME280;65924;47.250;11.332;2022-12-11T02:34:00;93845.62;;;1.86;71.51
76990;BME280;65924;47.250;11.332;2022-12-11T02:34:38;93843.42;;;1.87;71.55
76990;BME280;65924;47.250;11.332;2022-12-11T02:35:50;93843.42;;;1.87;71.57
76990;BME280;65924;47.250;11.332;2022-12-11T02:35:59;93848.40;;;1.88;71.33
76990;BME280;65924;47.250;11.332;2022-12-11T02:36:32;93845.39;;;1.88;71.29
76990;BME280;65924;47.250;11.332;2022-12-11T02:37:06;93847.55;;;1.88;71.62
76990;BME280;65924;47.250;11.332;2022-12-11T02:37:36;93849.38;;;1.88;71.48
76990;BME280;65924;47.250;11.332;2022-12-11T02:38:09;93847.88;;;1.88;71.17
76990;BME280;65924;47.250;11.332;2022-12-11T02:38:41;93846.84;;;1.89;71.08
76990;BME280;65924;47.250;11.332;2022-12-11T02:39:11;93848.18;;;1.89;70.87
76990;BME280;65924;47.250;11.332;2022-12-11T02:39:40;93843.98;;;1.89;70.89
76990;BME280;65924;47.250;11.332;2022-12-11T02:40:12;93846.97;;;1.90;70.66
76990;BME280;65924;47.250;11.332;2022-12-11T02:40:42;93843.77;;;1.90;70.57
76990;BME280;65924;47.250;11.332;2022-12-11T02:41:11;93844.23;;;1.91;70.57
76990;BME280;65924;47.250;11.332;2022-12-11T02:41:43;93842.87;;;1.91;70.21
76990;BME280;65924;47.250;11.332;2022-12-11T02:42:13;93843.00;;;1.92;70.24
76990;BME280;65924;47.250;11.332;2022-12-11T02:42:44;93841.48;;;1.92;70.11
76990;BME280;65924;47.250;11.332;2022-12-11T02:43:15;93842.95;;;1.93;70.21
76990;BME280;65924;47.250;11.332;2022-12-11T02:43:45;93842.30;;;1.92;70.40
76990;BME280;65924;47.250;11.332;2022-12-11T02:44:18;93842.60;;;1.94;70.54
76990;BME280;65924;47.250;11.332;2022-12-11T02:44:49;93845.09;;;1.94;70.33
76990;BME280;65924;47.250;11.332;2022-12-11T02:45:20;93844.08;;;1.94;70.61
76990;BME280;65924;47.250;11.332;2022-12-11T02:45:49;93842.38;;;1.94;70.69
76990;BME280;65924;47.250;11.332;2022-12-11T02:46:18;93841.27;;;1.93;70.56
76990;BME280;65924;47.250;11.332;2022-12-11T02:46:48;93839.55;;;1.94;70.35
76990;BME280;65924;47.250;11.332;2022-12-11T02:47:18;93838.08;;;1.93;70.19
76990;BME280;65924;47.250;11.332;2022-12-11T02:47:48;93836.39;;;1.94;70.37
76990;BME280;65924;47.250;11.332;2022-12-11T02:48:17;93836.58;;;1.93;70.32
76990;BME280;65924;47.250;11.332;2022-12-11T02:48:47;93838.55;;;1.94;70.37